createdAt,value
2019-03-04T00:02:02.024Z,7.35
2019-03-04T00:04:29.299Z,5.90
2019-03-04T00:06:56.580Z,5.35
2019-03-04T00:09:23.934Z,4.83
2019-03-04T00:11:51.210Z,4.72
2019-03-04T00:14:18.821Z,4.92
2019-03-04T00:16:46.101Z,5.05
2019-03-04T00:19:13.403Z,6.40
2019-03-04T00:21:40.684Z,7.15
2019-03-04T00:24:08.056Z,6.25
2019-03-04T00:26:35.397Z,6.55
2019-03-04T00:29:02.674Z,4.75
2019-03-04T00:31:29.977Z,4.70
2019-03-04T00:33:57.281Z,6.33
2019-03-04T00:36:24.574Z,6.83
2019-03-04T00:38:51.878Z,6.90
2019-03-04T00:41:20.224Z,5.72
2019-03-04T00:43:47.511Z,7.20
2019-03-04T00:46:15.879Z,4.75
2019-03-04T00:48:43.160Z,3.95
2019-03-04T00:51:10.496Z,5.45
2019-03-04T00:53:37.804Z,4.40
2019-03-04T00:56:05.170Z,4.80
2019-03-04T00:58:32.515Z,5.85
2019-03-04T01:00:59.826Z,5.65
2019-03-04T01:03:27.121Z,6.65
2019-03-04T01:05:54.490Z,4.70
2019-03-04T01:08:21.842Z,4.50
2019-03-04T01:10:49.204Z,7.03
2019-03-04T01:13:17.578Z,4.65
2019-03-04T01:15:45.000Z,4.53
2019-03-04T01:18:13.870Z,4.70
2019-03-04T01:20:41.234Z,3.90
2019-03-04T01:23:08.616Z,5.53
2019-03-04T01:25:35.937Z,5.65
2019-03-04T01:28:03.256Z,4.58
2019-03-04T01:30:30.598Z,5.20
2019-03-04T01:32:57.893Z,4.80
2019-03-04T01:35:25.172Z,7.40
2019-03-04T01:37:52.462Z,6.90
2019-03-04T01:40:22.965Z,7.80
2019-03-04T01:42:50.314Z,4.85
2019-03-04T01:45:18.076Z,4.92
2019-03-04T01:47:45.436Z,3.80
2019-03-04T01:50:13.724Z,4.75
2019-03-04T01:52:41.004Z,6.65
2019-03-04T01:55:09.395Z,5.37
2019-03-04T01:57:36.737Z,6.53
2019-03-04T02:00:05.560Z,6.65
2019-03-04T02:02:33.714Z,7.62
2019-03-04T02:05:01.010Z,7.40
2019-03-04T02:07:28.287Z,6.25
2019-03-04T02:09:55.844Z,4.00
2019-03-04T02:12:23.235Z,6.08
2019-03-04T02:14:50.531Z,4.22
2019-03-04T02:17:17.815Z,5.70
2019-03-04T02:19:45.102Z,7.55
2019-03-04T02:22:12.392Z,8.43
2019-03-04T02:24:39.687Z,5.20
2019-03-04T02:27:06.973Z,5.42
2019-03-04T02:29:35.339Z,5.33
2019-03-04T02:32:02.642Z,7.10
2019-03-04T02:34:30.011Z,5.10
2019-03-04T02:36:57.271Z,6.80
2019-03-04T02:39:24.581Z,5.87
2019-03-04T02:41:51.935Z,7.47
2019-03-04T02:44:19.203Z,4.62
2019-03-04T02:46:46.500Z,6.65
2019-03-04T02:49:13.782Z,5.05
2019-03-04T02:51:41.156Z,5.47
2019-03-04T02:54:08.538Z,6.42
2019-03-04T02:56:37.767Z,7.05
2019-03-04T02:59:04.875Z,5.30
2019-03-04T03:01:32.170Z,8.73
2019-03-04T03:03:59.465Z,6.22
2019-03-04T03:06:26.853Z,5.22
2019-03-04T03:08:54.127Z,4.95
2019-03-04T03:11:21.443Z,5.00
2019-03-04T03:13:48.823Z,6.03
2019-03-04T03:16:16.190Z,7.60
2019-03-04T03:18:43.495Z,5.75
2019-03-04T03:21:10.817Z,5.62
2019-03-04T03:23:38.183Z,5.85
2019-03-04T03:26:05.449Z,5.60
2019-03-04T03:28:32.766Z,7.35
2019-03-04T03:31:00.229Z,10.53
2019-03-04T03:33:27.584Z,5.15
2019-03-04T03:35:54.962Z,5.08
2019-03-04T03:38:22.407Z,7.37
2019-03-04T03:40:49.680Z,5.50
2019-03-04T03:43:16.976Z,5.70
2019-03-04T03:45:44.352Z,5.80
2019-03-04T03:48:11.789Z,6.67
2019-03-04T03:50:39.137Z,6.15
2019-03-04T03:53:06.410Z,5.78
2019-03-04T03:55:33.704Z,4.40
2019-03-04T03:58:01.004Z,4.10
2019-03-04T04:00:28.285Z,4.40
2019-03-04T04:02:55.578Z,4.67
2019-03-04T04:05:22.931Z,7.00
2019-03-04T04:07:50.371Z,4.72
2019-03-04T04:10:18.059Z,5.72
2019-03-04T04:12:45.462Z,5.80
2019-03-04T04:15:13.649Z,6.15
2019-03-04T04:17:40.927Z,8.53
2019-03-04T04:20:08.771Z,6.55
2019-03-04T04:22:36.155Z,4.55
2019-03-04T04:25:03.803Z,5.10
2019-03-04T04:27:31.087Z,4.97
2019-03-04T04:29:58.467Z,10.25
2019-03-04T04:32:26.327Z,10.68
2019-03-04T04:34:53.618Z,5.10
2019-03-04T04:37:21.003Z,4.40
2019-03-04T04:39:48.328Z,5.15
2019-03-04T04:42:15.687Z,5.67
2019-03-04T04:44:42.984Z,7.85
2019-03-04T04:47:10.287Z,6.47
2019-03-04T04:49:38.885Z,5.37
2019-03-04T04:52:06.268Z,4.70
2019-03-04T04:54:33.539Z,9.33
2019-03-04T04:57:00.833Z,4.53
2019-03-04T04:59:28.132Z,6.50
2019-03-04T05:01:55.413Z,6.45
2019-03-04T05:04:22.728Z,4.00
2019-03-04T05:06:50.012Z,5.20
2019-03-04T05:09:17.306Z,4.85
2019-03-04T05:11:44.585Z,6.62
2019-03-04T05:14:11.875Z,4.62
2019-03-04T05:16:39.156Z,4.95
2019-03-04T05:19:06.433Z,5.70
2019-03-04T05:21:33.748Z,5.78
2019-03-04T05:24:01.076Z,4.45
2019-03-04T05:26:28.763Z,5.67
2019-03-04T05:28:56.107Z,4.40
2019-03-04T05:31:23.458Z,5.58
2019-03-04T05:33:50.743Z,4.08
2019-03-04T05:36:18.022Z,4.60
2019-03-04T05:38:45.318Z,6.42
2019-03-04T05:41:13.684Z,4.33
2019-03-04T05:43:40.975Z,5.05
2019-03-04T05:46:08.255Z,4.80
2019-03-04T05:48:35.579Z,5.67
2019-03-04T05:51:02.878Z,3.87
2019-03-04T05:53:31.182Z,5.25
2019-03-04T05:55:58.472Z,5.10
2019-03-04T05:58:25.770Z,3.40
2019-03-04T06:01:10.768Z,4.05
2019-03-04T06:03:38.076Z,6.00
2019-03-04T06:06:05.382Z,4.25
2019-03-04T06:08:32.729Z,4.97
2019-03-04T06:11:00.012Z,3.67
2019-03-04T06:13:27.287Z,3.95
2019-03-04T06:15:54.578Z,4.10
2019-03-04T06:18:22.128Z,4.20
2019-03-04T06:20:49.433Z,4.95
2019-03-04T06:23:16.702Z,3.80
2019-03-04T06:25:46.047Z,4.65
2019-03-04T06:28:13.331Z,3.70
2019-03-04T06:30:40.621Z,3.47
2019-03-04T06:33:07.906Z,3.75
2019-03-04T06:35:35.259Z,3.90
2019-03-04T06:38:02.563Z,4.08
2019-03-04T06:40:29.843Z,3.45
2019-03-04T06:42:57.143Z,4.35
2019-03-04T06:45:24.443Z,3.75
2019-03-04T06:47:51.861Z,3.50
2019-03-04T06:50:37.229Z,3.30
2019-03-04T06:53:04.517Z,3.87
2019-03-04T06:55:36.323Z,3.40
2019-03-04T06:58:03.632Z,3.40
2019-03-04T07:00:32.523Z,3.40
2019-03-04T07:02:59.867Z,3.12
2019-03-04T07:05:44.951Z,3.67
2019-03-04T07:08:13.801Z,3.52
2019-03-04T07:10:42.701Z,3.60
2019-03-04T07:13:09.988Z,4.10
2019-03-04T07:15:37.279Z,4.00
2019-03-04T07:18:04.567Z,3.10
2019-03-04T07:20:31.855Z,4.40
2019-03-04T07:22:59.143Z,3.95
2019-03-04T07:25:26.441Z,3.50
2019-03-04T07:27:53.788Z,4.37
2019-03-04T07:30:21.154Z,4.35
2019-03-04T07:32:48.422Z,3.65
2019-03-04T07:35:15.721Z,4.33
2019-03-04T07:37:43.007Z,3.55
2019-03-04T07:40:11.865Z,7.00
2019-03-04T07:42:39.196Z,4.15
2019-03-04T07:45:08.163Z,3.27
2019-03-04T07:47:35.511Z,3.85
2019-03-04T07:50:02.785Z,3.30
2019-03-04T07:52:30.141Z,2.87
2019-03-04T07:54:57.421Z,4.95
2019-03-04T07:57:24.763Z,3.47
2019-03-04T07:59:52.058Z,4.65
2019-03-04T08:02:19.331Z,3.25
2019-03-04T08:04:46.619Z,3.95
2019-03-04T08:07:31.865Z,3.47
2019-03-04T08:10:15.523Z,3.15
2019-03-04T08:12:49.427Z,5.62
2019-03-04T08:15:16.763Z,10.88
2019-03-04T08:17:44.221Z,6.95
2019-03-04T08:20:11.547Z,3.25
2019-03-04T08:22:38.846Z,5.67
2019-03-04T08:25:07.593Z,5.45
2019-03-04T08:27:35.029Z,2.52
2019-03-04T08:30:02.339Z,4.53
2019-03-04T08:32:29.617Z,3.67
2019-03-04T08:34:56.887Z,2.55
2019-03-04T08:37:24.177Z,2.10
2019-03-04T08:39:52.236Z,1.90
2019-03-04T08:42:19.518Z,1.72
2019-03-04T08:44:46.800Z,5.47
2019-03-04T08:47:14.106Z,2.50
2019-03-04T08:49:41.376Z,2.10
2019-03-04T08:52:08.646Z,3.33
2019-03-04T08:54:36.008Z,3.65
2019-03-04T08:57:04.077Z,1.90
2019-03-04T08:59:31.678Z,2.42
2019-03-04T09:01:58.945Z,2.50
2019-03-04T09:04:26.232Z,1.80
2019-03-04T09:06:53.580Z,2.10
2019-03-04T09:09:21.976Z,2.25
2019-03-04T09:11:49.891Z,3.20
2019-03-04T09:14:17.202Z,2.47
2019-03-04T09:16:44.482Z,2.37
2019-03-04T09:19:11.762Z,3.80
2019-03-04T09:21:39.060Z,3.22
2019-03-04T09:24:06.332Z,3.70
2019-03-04T09:26:33.662Z,3.60
2019-03-04T09:29:00.939Z,3.55
2019-03-04T09:31:28.316Z,3.08
2019-03-04T09:33:55.766Z,2.20
2019-03-04T09:36:23.104Z,4.75
2019-03-04T09:38:50.447Z,2.62
2019-03-04T09:41:17.726Z,3.50
2019-03-04T09:43:45.039Z,2.40
2019-03-04T09:46:12.385Z,4.90
2019-03-04T09:48:39.694Z,3.33
2019-03-04T09:51:07.115Z,4.90
2019-03-04T09:53:39.575Z,4.27
2019-03-04T09:56:03.529Z,3.43
2019-03-04T09:58:30.798Z,2.87
2019-03-04T10:01:02.548Z,3.10
2019-03-04T10:03:31.433Z,2.47
2019-03-04T10:06:16.031Z,3.13
2019-03-04T10:08:52.240Z,4.77
2019-03-04T10:11:23.993Z,3.40
2019-03-04T10:13:52.864Z,3.33
2019-03-04T10:16:21.658Z,4.07
2019-03-04T10:18:54.638Z,3.70
2019-03-04T10:21:26.361Z,3.10
2019-03-04T10:23:55.241Z,4.43
2019-03-04T10:26:32.859Z,3.40
2019-03-04T10:29:05.258Z,3.43
2019-03-04T10:31:37.019Z,2.90
2019-03-04T10:34:14.934Z,3.20
2019-03-04T10:36:43.759Z,4.93
2019-03-04T10:39:14.287Z,4.00
2019-03-04T10:41:43.114Z,3.97
2019-03-04T10:44:14.843Z,4.10
2019-03-04T10:46:54.532Z,3.67
2019-03-04T10:49:22.140Z,3.33
2019-03-04T10:51:49.443Z,3.60
2019-03-04T10:54:16.823Z,3.60
2019-03-04T10:56:44.195Z,3.23
2019-03-04T10:59:11.515Z,3.73
2019-03-04T11:01:40.553Z,3.97
2019-03-04T11:04:07.825Z,4.20
2019-03-04T11:06:35.350Z,2.75
2019-03-04T11:09:02.665Z,3.33
2019-03-04T11:11:30.313Z,4.40
2019-03-04T11:13:57.589Z,3.50
2019-03-04T11:16:24.876Z,5.75
2019-03-04T11:18:52.174Z,4.17
2019-03-04T11:21:19.445Z,2.73
2019-03-04T11:23:47.975Z,3.90
2019-03-04T11:26:15.239Z,3.97
2019-03-04T11:28:42.546Z,6.57
2019-03-04T11:31:09.987Z,4.53
2019-03-04T11:33:37.267Z,4.23
2019-03-04T11:36:04.553Z,3.98
2019-03-04T11:38:42.367Z,4.25
2019-03-04T11:41:10.807Z,4.92
2019-03-04T11:43:38.101Z,6.35
2019-03-04T11:46:05.553Z,4.85
2019-03-04T11:48:32.838Z,3.85
2019-03-04T11:51:01.845Z,4.17
2019-03-04T11:53:29.139Z,4.80
2019-03-04T11:55:56.423Z,19.20
2019-03-04T11:58:23.807Z,5.55
2019-03-04T12:01:08.959Z,4.45
2019-03-04T12:03:36.256Z,4.08
2019-03-04T12:06:05.844Z,3.62
2019-03-04T12:08:32.891Z,2.25
2019-03-04T12:11:00.261Z,2.30
2019-03-04T12:13:27.694Z,2.55
2019-03-04T12:15:55.149Z,2.92
2019-03-04T12:18:23.549Z,3.65
2019-03-04T12:20:50.837Z,3.70
2019-03-04T12:23:18.111Z,2.50
2019-03-04T12:25:45.393Z,3.35
2019-03-04T12:28:12.747Z,3.83
2019-03-04T12:30:40.104Z,6.22
2019-03-04T12:33:07.498Z,3.70
2019-03-04T12:35:34.850Z,4.53
2019-03-04T12:38:02.157Z,5.03
2019-03-04T12:40:29.422Z,4.67
2019-03-04T12:42:56.782Z,7.62
2019-03-04T12:45:34.023Z,4.50
2019-03-04T12:47:55.742Z,7.33
2019-03-04T12:50:26.509Z,6.10
2019-03-04T12:53:01.896Z,2.02
2019-03-04T12:55:29.191Z,3.95
2019-03-04T12:57:59.313Z,2.20
2019-03-04T13:00:30.200Z,3.60
2019-03-04T13:02:58.206Z,1.87
2019-03-04T13:05:25.629Z,1.80
2019-03-04T13:07:53.148Z,1.92
2019-03-04T13:10:20.620Z,2.17
2019-03-04T13:12:48.214Z,1.60
2019-03-04T13:15:31.892Z,3.67
2019-03-04T13:17:59.266Z,2.35
2019-03-04T13:20:27.200Z,5.42
2019-03-04T13:22:54.486Z,1.80
2019-03-04T13:25:21.766Z,1.70
2019-03-04T13:27:49.034Z,2.17
2019-03-04T13:30:29.296Z,1.75
2019-03-04T13:32:56.591Z,2.00
2019-03-04T13:35:28.427Z,2.00
2019-03-04T13:37:56.256Z,1.70
2019-03-04T13:40:23.639Z,1.95
2019-03-04T13:42:51.100Z,1.70
2019-03-04T13:45:18.558Z,2.95
2019-03-04T13:47:46.052Z,2.40
2019-03-04T13:50:14.787Z,2.20
2019-03-04T13:52:42.085Z,2.45
2019-03-04T13:55:09.470Z,2.22
2019-03-04T13:57:36.783Z,2.70
2019-03-04T14:00:08.588Z,3.12
2019-03-04T14:02:35.894Z,2.10
2019-03-04T14:05:03.456Z,2.60
2019-03-04T14:07:30.741Z,2.95
2019-03-04T14:09:59.595Z,2.98
2019-03-04T14:12:26.862Z,3.72
2019-03-04T14:14:54.177Z,2.80
2019-03-04T14:17:21.504Z,3.10
2019-03-04T14:19:48.997Z,2.55
2019-03-04T14:22:16.393Z,3.20
2019-03-04T14:24:43.671Z,3.10
2019-03-04T14:27:11.043Z,3.12
2019-03-04T14:29:38.367Z,5.33
2019-03-04T14:32:07.166Z,3.62
2019-03-04T14:34:34.577Z,3.50
2019-03-04T14:37:03.354Z,4.00
2019-03-04T14:39:30.833Z,3.95
2019-03-04T14:41:58.116Z,6.15
2019-03-04T14:44:25.430Z,4.10
2019-03-04T14:46:52.731Z,4.75
2019-03-04T14:49:22.101Z,4.78
2019-03-04T14:51:49.360Z,4.72
2019-03-04T14:54:16.635Z,4.53
2019-03-04T14:56:43.925Z,4.12
2019-03-04T14:59:11.549Z,4.20
2019-03-04T15:01:38.826Z,7.47
2019-03-04T15:04:06.097Z,4.53
2019-03-04T15:06:33.410Z,4.28
2019-03-04T15:09:00.763Z,4.70
2019-03-04T15:11:28.041Z,4.50
2019-03-04T15:13:55.321Z,6.83
2019-03-04T15:16:22.737Z,3.85
2019-03-04T15:18:50.030Z,6.42
2019-03-04T15:21:17.443Z,4.58
2019-03-04T15:23:44.717Z,5.97
2019-03-04T15:26:12.009Z,4.60
2019-03-04T15:28:39.285Z,5.30
2019-03-04T15:31:06.669Z,4.55
2019-03-04T15:33:34.071Z,4.72
2019-03-04T15:36:01.619Z,4.70
2019-03-04T15:38:28.942Z,7.42
2019-03-04T15:40:56.331Z,4.72
2019-03-04T15:43:23.689Z,4.03
2019-03-04T15:45:52.736Z,3.90
2019-03-04T15:48:21.036Z,6.30
2019-03-04T15:50:48.398Z,5.30
2019-03-04T15:53:15.681Z,6.03
2019-03-04T15:55:43.005Z,5.22
2019-03-04T15:58:10.431Z,4.35
2019-03-04T16:00:37.710Z,6.50
2019-03-04T16:03:06.908Z,4.87
2019-03-04T16:05:37.293Z,4.83
2019-03-04T16:08:07.967Z,5.03
2019-03-04T16:10:36.573Z,4.22
2019-03-04T16:13:04.718Z,7.35
2019-03-04T16:15:32.284Z,8.15
2019-03-04T16:17:59.638Z,5.80
2019-03-04T16:20:27.014Z,7.00
2019-03-04T16:22:55.250Z,5.85
2019-03-04T16:25:22.593Z,7.00
2019-03-04T16:27:50.012Z,6.20
2019-03-04T16:30:18.814Z,8.00
2019-03-04T16:32:46.270Z,6.10
2019-03-04T16:35:13.734Z,8.90
2019-03-04T16:37:41.216Z,6.08
2019-03-04T16:40:10.160Z,6.67
2019-03-04T16:42:37.572Z,7.50
2019-03-04T16:45:05.756Z,6.15
2019-03-04T16:47:33.110Z,6.25
2019-03-04T16:50:01.030Z,11.90
2019-03-04T16:52:28.372Z,5.05
2019-03-04T16:54:57.304Z,5.65
2019-03-04T16:57:24.813Z,4.53
2019-03-04T16:59:52.088Z,8.55
2019-03-04T17:02:20.148Z,11.45
2019-03-04T17:04:48.598Z,10.13
2019-03-04T17:07:15.924Z,7.20
2019-03-04T17:09:43.312Z,9.28
2019-03-04T17:12:10.724Z,6.70
2019-03-04T17:14:38.019Z,5.92
2019-03-04T17:17:11.861Z,7.22
2019-03-04T17:19:39.144Z,5.90
2019-03-04T17:22:06.498Z,5.70
2019-03-04T17:24:36.802Z,6.95
2019-03-04T17:27:04.241Z,8.48
2019-03-04T17:29:31.553Z,10.60
2019-03-04T17:31:59.195Z,8.25
2019-03-04T17:34:26.549Z,8.85
2019-03-04T17:36:54.862Z,7.08
2019-03-04T17:39:22.450Z,6.78
2019-03-04T17:41:52.682Z,6.45
2019-03-04T17:44:23.304Z,12.88
2019-03-04T17:46:50.665Z,8.00
2019-03-04T17:49:17.945Z,9.05
2019-03-04T17:51:47.919Z,11.90
2019-03-04T17:54:16.862Z,6.20
2019-03-04T17:56:44.203Z,6.92
2019-03-04T17:59:12.147Z,6.30
2019-03-04T18:01:39.487Z,5.85
2019-03-04T18:04:09.679Z,8.68
2019-03-04T18:06:37.017Z,6.87
2019-03-04T18:09:06.063Z,7.92
2019-03-04T18:11:33.367Z,6.17
2019-03-04T18:14:01.905Z,7.50
2019-03-04T18:16:29.296Z,6.20
2019-03-04T18:18:56.603Z,10.78
2019-03-04T18:21:24.822Z,8.58
2019-03-04T18:23:52.103Z,8.33
2019-03-04T18:26:21.171Z,7.25
2019-03-04T18:28:57.815Z,6.40
2019-03-04T18:31:48.943Z,5.72
2019-03-04T18:34:39.995Z,8.70
2019-03-04T18:37:11.483Z,6.80
2019-03-04T18:40:00.345Z,8.63
2019-03-04T18:42:48.680Z,4.78
2019-03-04T18:45:32.657Z,7.95
2019-03-04T18:48:05.346Z,11.22
2019-03-04T18:50:32.624Z,7.25
2019-03-04T18:52:59.971Z,5.35
2019-03-04T18:55:27.335Z,7.47
2019-03-04T18:57:54.675Z,9.70
2019-03-04T19:00:25.047Z,7.22
2019-03-04T19:02:53.304Z,12.93
2019-03-04T19:05:21.673Z,9.63
2019-03-04T19:07:49.045Z,9.88
2019-03-04T19:10:16.477Z,8.50
2019-03-04T19:12:43.929Z,8.85
2019-03-04T19:15:11.370Z,6.20
2019-03-04T19:17:39.487Z,10.90
2019-03-04T19:20:08.450Z,11.00
2019-03-04T19:22:35.809Z,12.10
2019-03-04T19:25:03.260Z,6.75
2019-03-04T19:27:32.035Z,17.77
2019-03-04T19:29:59.420Z,9.55
2019-03-04T19:32:26.795Z,5.97
2019-03-04T19:34:54.073Z,8.45
2019-03-04T19:37:21.420Z,7.47
2019-03-04T19:39:48.729Z,5.58
2019-03-04T19:42:16.751Z,6.70
2019-03-04T19:44:44.274Z,7.58
2019-03-04T19:47:11.625Z,7.60
2019-03-04T19:49:38.971Z,12.95
2019-03-04T19:52:06.428Z,10.70
2019-03-04T19:54:33.786Z,6.35
2019-03-04T19:57:01.148Z,12.07
2019-03-04T19:59:31.010Z,8.45
2019-03-04T20:01:58.361Z,7.65
2019-03-04T20:04:25.795Z,8.43
2019-03-04T20:06:53.101Z,11.22
2019-03-04T20:09:20.451Z,6.72
2019-03-04T20:11:47.761Z,7.50
2019-03-04T20:14:15.642Z,7.47
2019-03-04T20:16:43.059Z,7.17
2019-03-04T20:19:10.373Z,5.87
2019-03-04T20:21:37.845Z,9.45
2019-03-04T20:24:05.166Z,10.72
2019-03-04T20:26:33.064Z,14.38
2019-03-04T20:29:00.453Z,8.55
2019-03-04T20:31:27.815Z,6.90
2019-03-04T20:33:55.143Z,6.47
2019-03-04T20:36:22.578Z,8.48
2019-03-04T20:38:50.989Z,12.73
2019-03-04T20:41:18.367Z,6.50
2019-03-04T20:43:47.878Z,8.03
2019-03-04T20:46:16.700Z,5.85
2019-03-04T20:48:46.024Z,12.40
2019-03-04T20:51:24.245Z,8.20
2019-03-04T20:53:51.660Z,8.83
2019-03-04T20:56:18.987Z,8.93
2019-03-04T20:58:46.263Z,6.85
2019-03-04T21:01:13.630Z,7.28
2019-03-04T21:03:41.029Z,7.30
2019-03-04T21:06:08.621Z,9.28
2019-03-04T21:08:35.916Z,7.30
2019-03-04T21:11:06.243Z,9.23
2019-03-04T21:13:36.143Z,6.45
2019-03-04T21:16:03.562Z,10.68
2019-03-04T21:18:31.931Z,5.60
2019-03-04T21:21:00.298Z,8.45
2019-03-04T21:23:27.738Z,10.48
2019-03-04T21:25:59.378Z,9.10
2019-03-04T21:28:34.118Z,6.03
2019-03-04T21:31:18.052Z,6.65
2019-03-04T21:33:55.901Z,4.97
2019-03-04T21:36:25.892Z,6.45
2019-03-04T21:38:55.951Z,4.87
2019-03-04T21:41:25.162Z,5.35
2019-03-04T21:43:53.995Z,5.83
2019-03-04T21:46:39.081Z,7.50
2019-03-04T21:49:07.260Z,8.98
2019-03-04T21:51:38.446Z,10.13
2019-03-04T21:54:07.110Z,9.18
2019-03-04T21:56:50.788Z,7.55
2019-03-04T21:59:18.075Z,5.75
2019-03-04T22:01:46.964Z,9.35
2019-03-04T22:04:14.322Z,10.72
2019-03-04T22:06:41.694Z,11.40
2019-03-04T22:09:09.382Z,8.30
2019-03-04T22:11:36.790Z,6.70
2019-03-04T22:14:04.490Z,5.95
2019-03-04T22:16:31.962Z,5.92
2019-03-04T22:18:59.359Z,7.72
2019-03-04T22:21:28.201Z,6.15
2019-03-04T22:23:55.545Z,7.03
2019-03-04T22:26:22.824Z,11.18
2019-03-04T22:28:51.319Z,9.20
2019-03-04T22:31:18.669Z,5.95
2019-03-04T22:33:46.076Z,8.50
2019-03-04T22:36:13.446Z,13.95
2019-03-04T22:38:40.726Z,8.28
2019-03-04T22:41:08.033Z,9.10
2019-03-04T22:43:36.228Z,6.45
2019-03-04T22:46:03.586Z,8.73
2019-03-04T22:48:30.881Z,6.53
2019-03-04T22:50:58.226Z,7.10
2019-03-04T22:53:25.596Z,8.28
2019-03-04T22:55:52.901Z,7.65
2019-03-04T22:58:28.534Z,7.50
2019-03-04T23:00:57.008Z,5.95
2019-03-04T23:03:30.229Z,6.97
2019-03-04T23:05:59.057Z,10.30
2019-03-04T23:08:26.323Z,8.98
2019-03-04T23:10:53.731Z,6.42
2019-03-04T23:13:25.531Z,7.95
2019-03-04T23:15:53.576Z,6.53
2019-03-04T23:18:20.864Z,7.35
2019-03-04T23:20:48.208Z,6.62
2019-03-04T23:23:15.567Z,7.53
2019-03-04T23:25:42.837Z,8.88
2019-03-04T23:28:10.135Z,5.67
2019-03-04T23:30:37.473Z,9.25
2019-03-04T23:33:04.773Z,8.50
2019-03-04T23:35:32.047Z,13.20
2019-03-04T23:37:59.389Z,9.55
2019-03-04T23:40:26.687Z,11.33
2019-03-04T23:42:54.029Z,8.80
2019-03-04T23:45:21.321Z,13.03
2019-03-04T23:47:48.858Z,7.20
2019-03-04T23:50:18.467Z,9.45
2019-03-04T23:52:47.917Z,6.15
2019-03-04T23:55:15.267Z,10.08
2019-03-04T23:57:42.544Z,7.92
